Wetterdaten: aktuell Freitag, 28.07.2017 18:35
Datum Zeit Luft-Temp. Wasser Feuchte A. Luftdruck Regen Wind Richtung Richtung Windben
28.07.2017 18:35 20.4 C 21.7 C 76 % 1015.5 hPa 0.0 l/m 6.4 km/h (2 Bft) S-SO 157 11.6 km/h (2 Bft)
28.07.2017 17:35 19.9 C 21.7 C 75 % 1015.8 hPa 0.0 l/m 8.0 km/h (2 Bft) S 175 11.6 km/h (2 Bft)
28.07.2017 16:35 19.2 C 21.7 C 81 % 1016.0 hPa 0.0 l/m 13.2 km/h (3 Bft) SO 135 18.8 km/h (3 Bft)
28.07.2017 15:35 18.3 C 21.1 C 83 % 1016.2 hPa 0.0 l/m 12.8 km/h (3 Bft) SO 126 17.4 km/h (3 Bft)
28.07.2017 14:35 17.3 C 21.1 C 85 % 1016.5 hPa 0.0 l/m 13.2 km/h (3 Bft) S-SO 148 17.4 km/h (3 Bft)
28.07.2017 13:35 17.4 C 21.1 C 88 % 1016.4 hPa 0.0 l/m 8.5 km/h (2 Bft) S-SO 155 14.5 km/h (3 Bft)
28.07.2017 12:35 16.7 C 21.1 C 92 % 1016.3 hPa 0.0 l/m 12.1 km/h (2 Bft) SO 141 21.7 km/h (4 Bft)
28.07.2017 11:35 16.2 C 21.1 C 95 % 1016.2 hPa 0.0 l/m 10.9 km/h (2 Bft) O-SO 121 14.5 km/h (3 Bft)
28.07.2017 10:35 15.8 C 21.1 C 99 % 1015.6 hPa 0.0 l/m 3.3 km/h (1 Bft) SO 126 8.7 km/h (2 Bft)
28.07.2017 09:35 15.4 C 21.1 C 98 % 1015.2 hPa 0.0 l/m 0.0 km/h (0 Bft) W 269 0.0 km/h (0 Bft)
28.07.2017 08:35 15.9 C 21.7 C 100 % 1014.3 hPa 0.0 l/m 4.7 km/h (1 Bft) N-NW 329 13.0 km/h (3 Bft)
28.07.2017 07:35 16.0 C 21.7 C 100 % 1013.0 hPa 0.0 l/m 0.0 km/h (0 Bft) N-NW 340 0.0 km/h (0 Bft)
28.07.2017 06:35 16.9 C 21.7 C 97 % 1012.6 hPa 0.0 l/m 3.1 km/h (1 Bft) S-SO 167 8.7 km/h (2 Bft)
28.07.2017 05:35 17.1 C 21.7 C 97 % 1011.8 hPa 0.0 l/m 1.6 km/h (1 Bft) S-SO 151 5.8 km/h (2 Bft)
28.07.2017 05:21 16.8 C 21.7 C 97 % 1013.8 hPa 0.0 l/m 0.0 km/h (0 Bft) S 180 0.0 km/h (0 Bft)
28.07.2017 05:09 16.9 C 21.7 C 96 % 1014.0 hPa 0.0 l/m 0.0 km/h (0 Bft) S 180 0.0 km/h (0 Bft)
28.07.2017 04:57 17.3 C 21.7 C 95 % 1014.0 hPa 0.0 l/m 0.0 km/h (0 Bft) S 180 0.0 km/h (0 Bft)
28.07.2017 04:45 17.5 C 21.7 C 94 % 1013.9 hPa 0.0 l/m 1.4 km/h (1 Bft) S-SO 157 6.4 km/h (2 Bft)
28.07.2017 04:33 17.8 C 21.7 C 93 % 1014.1 hPa 0.0 l/m 10.1 km/h (2 Bft) S-SO 157 16.1 km/h (3 Bft)
28.07.2017 04:21 17.7 C 21.7 C 94 % 1014.0 hPa 0.0 l/m 11.6 km/h (2 Bft) S-SO 157 14.5 km/h (3 Bft)
28.07.2017 04:09 17.3 C 21.7 C 95 % 1014.1 hPa 0.0 l/m 2.9 km/h (1 Bft) S-SO 157 4.8 km/h (1 Bft)
28.07.2017 03:57 17.1 C 21.7 C 96 % 1014.1 hPa 0.0 l/m 0.0 km/h (0 Bft) S 180 0.0 km/h (0 Bft)
28.07.2017 03:45 17.1 C 21.7 C 97 % 1014.1 hPa 0.0 l/m 0.0 km/h (0 Bft) S 180 0.0 km/h (0 Bft)
28.07.2017 03:33 17.1 C 21.7 C 97 % 1014.2 hPa 0.0 l/m 0.0 km/h (0 Bft) S 180 0.0 km/h (0 Bft)
28.07.2017 03:21 17.2 C 21.7 C 97 % 1014.2 hPa 0.0 l/m 0.0 km/h (0 Bft) S 180 0.0 km/h (0 Bft)
28.07.2017 03:09 16.9 C 21.7 C 96 % 1014.4 hPa 0.0 l/m 0.0 km/h (0 Bft) S 180 0.0 km/h (0 Bft)
28.07.2017 02:57 17.2 C 21.7 C 95 % 1014.5 hPa 0.0 l/m 0.0 km/h (0 Bft) S 180 0.0 km/h (0 Bft)
28.07.2017 02:45 17.7 C 21.7 C 92 % 1014.5 hPa 0.0 l/m 0.0 km/h (0 Bft) S 180 0.0 km/h (0 Bft)
28.07.2017 02:33 18.2 C 21.7 C 91 % 1014.6 hPa 0.0 l/m 7.2 km/h (2 Bft) S-SO 157 9.7 km/h (2 Bft)
28.07.2017 02:21 18.3 C 21.7 C 88 % 1014.5 hPa 0.0 l/m 0.0 km/h (0 Bft) S 180 0.0 km/h (0 Bft)
28.07.2017 02:09 18.4 C 21.7 C 88 % 1014.4 hPa 0.0 l/m 7.2 km/h (2 Bft) W 270 9.7 km/h (2 Bft)
28.07.2017 01:57 18.3 C 21.7 C 88 % 1014.3 hPa 0.0 l/m 7.2 km/h (2 Bft) W 270 12.9 km/h (3 Bft)
28.07.2017 01:45 18.3 C 21.7 C 89 % 1014.2 hPa 0.0 l/m 7.2 km/h (2 Bft) W-SW 247 11.3 km/h (2 Bft)
28.07.2017 01:33 18.4 C 21.7 C 89 % 1013.9 hPa 0.0 l/m 10.1 km/h (2 Bft) W 270 14.5 km/h (3 Bft)
28.07.2017 01:21 18.4 C 21.7 C 87 % 1013.7 hPa 0.0 l/m 10.1 km/h (2 Bft) W-SW 247 16.1 km/h (3 Bft)
28.07.2017 01:09 18.3 C 21.7 C 91 % 1013.8 hPa 0.0 l/m 11.6 km/h (2 Bft) W-NW 292 19.3 km/h (3 Bft)
28.07.2017 00:57 18.1 C 21.7 C 96 % 1013.9 hPa 0.0 l/m 40.6 km/h (6 Bft) NW 315 53.1 km/h (7 Bft)
28.07.2017 00:45 18.3 C 21.7 C 97 % 1013.5 hPa 0.0 l/m 29.0 km/h (5 Bft) N-NW 337 35.4 km/h (5 Bft)
28.07.2017 00:33 18.3 C 21.7 C 96 % 1012.6 hPa 0.0 l/m 0.0 km/h (0 Bft) S 180 0.0 km/h (0 Bft)
28.07.2017 00:21 18.4 C 21.7 C 96 % 1012.4 hPa 0.0 l/m 7.2 km/h (2 Bft) S-SO 157 11.3 km/h (2 Bft)
28.07.2017 00:09 18.4 C 21.7 C 96 % 1012.5 hPa 0.0 l/m 7.2 km/h (2 Bft) S-SO 157 11.3 km/h (2 Bft)
27.07.2017 23:57 17.8 C 21.7 C 97 % 1012.4 hPa 0.0 l/m 0.0 km/h (0 Bft) S 180 0.0 km/h (0 Bft)
27.07.2017 23:45 17.7 C 21.7 C 97 % 1012.4 hPa 0.0 l/m 0.0 km/h (0 Bft) S 180 0.0 km/h (0 Bft)
27.07.2017 23:33 17.7 C 21.7 C 96 % 1012.4 hPa 0.0 l/m 1.4 km/h (1 Bft) S-SO 157 4.8 km/h (1 Bft)
27.07.2017 23:21 18.3 C 21.7 C 95 % 1012.5 hPa 0.0 l/m 0.0 km/h (0 Bft) S 180 0.0 km/h (0 Bft)
27.07.2017 23:09 18.6 C 21.7 C 95 % 1012.5 hPa 0.0 l/m 5.8 km/h (2 Bft) S-SO 157 8.0 km/h (2 Bft)
27.07.2017 22:57 18.8 C 21.7 C 94 % 1012.5 hPa 0.0 l/m 0.0 km/h (0 Bft) S 180 0.0 km/h (0 Bft)
27.07.2017 22:45 18.8 C 21.7 C 93 % 1012.8 hPa 0.0 l/m 0.0 km/h (0 Bft) S 180 0.0 km/h (0 Bft)
27.07.2017 22:33 19.1 C 21.7 C 92 % 1012.8 hPa 0.0 l/m 0.0 km/h (0 Bft) S 180 0.0 km/h (0 Bft)
27.07.2017 21:45 19.3 C 22.2 C 89 % 1010.3 hPa 0.0 l/m 0.0 km/h (0 Bft) S 175 0.0 km/h (0 Bft)
27.07.2017 20:45 20.3 C 22.2 C 88 % 1010.4 hPa 0.0 l/m 0.0 km/h (0 Bft) S 175 0.0 km/h (0 Bft)
27.07.2017 19:45 20.4 C 22.2 C 87 % 1010.0 hPa 0.0 l/m 0.0 km/h (0 Bft) S 175 0.0 km/h (0 Bft)
27.07.2017 19:00 21.0 C 22.2 C 80 % 1010.0 hPa 0.0 l/m 0.0 km/h (0 Bft) S-SO 151 0.0 km/h (0 Bft)
_ Min-Zeit 09:25 09:15 17:15 19:40 - 19:00 - - 19:00
Minimum _ 15.4 C 21.1 C 75 % 1009.9 hPa - 0.0 km/h (0 Bft) - - 0.0 km/h (0 Bft)
_ Max-Zeit 19:00 19:00 07:05 14:00 19:00 00:57 - - 00:58
Maximum _ 21.0 C 22.2 C 100 % 1016.5 hPa 0.0 l/m 40.6 km/h
NW (6 Bft)
- - 56.3 km/h
SO (7 Bft)
Durchschnitt _ 18.1 C 21.6 C 90 % 1013.7 hPa #0.0 l/m 4.8 km/h (1 Bft) S-SO - 7.8 km/h (2 Bft)